Time;durP1;ratioP1;P1;durP2;ratioP2;P2;SDS_P1;SDS_P2;PMS_P1;PMS_P2;Temp;Humidity;BMP_temperature;BMP_pressure;BME280_temperature;BME280_humidity;BME280_pressure;Samples;Min_cycle;Max_cycle;Signal;HPM_P1;HPM_P2
2023/08/10 00:01:44;;;;;;;6.13;2.30;;;15.20;75.60;;;;;;5047553;28;20484;-77
2023/08/10 00:04:13;;;;;;;6.00;2.33;;;15.20;75.60;;;;;;5041895;28;20469;-77
2023/08/10 00:06:42;;;;;;;5.93;2.53;;;15.20;75.60;;;;;;5044586;28;20484;-77
2023/08/10 00:09:11;;;;;;;5.20;2.40;;;15.10;75.40;;;;;;5037562;28;20477;-77
2023/08/10 00:11:40;;;;;;;7.00;2.20;;;15.00;75.50;;;;;;5044728;28;20464;-78
2023/08/10 00:14:08;;;;;;;6.50;2.40;;;15.00;75.60;;;;;;5039692;28;20974;-79
2023/08/10 00:16:36;;;;;;;4.60;2.27;;;15.00;75.70;;;;;;5046143;28;20462;-78
2023/08/10 00:19:04;;;;;;;5.93;2.70;;;15.00;75.70;;;;;;5050236;28;20486;-77
2023/08/10 00:21:33;;;;;;;4.87;2.07;;;15.00;75.70;;;;;;5043539;28;20468;-78
2023/08/10 00:24:03;;;;;;;6.00;2.57;;;15.00;75.70;;;;;;5043182;28;20526;-79
2023/08/10 00:26:31;;;;;;;5.57;2.47;;;15.00;75.70;;;;;;5070862;28;20917;-79
2023/08/10 00:28:59;;;;;;;6.80;2.23;;;15.00;75.60;;;;;;5038606;28;20456;-77
2023/08/10 00:31:29;;;;;;;5.40;2.10;;;15.00;75.60;;;;;;5057588;28;20995;-79
2023/08/10 00:33:57;;;;;;;7.80;3.03;;;15.00;75.50;;;;;;5074387;28;20473;-80
2023/08/10 00:36:25;;;;;;;8.30;2.73;;;14.90;75.40;;;;;;5042868;28;20496;-77
2023/08/10 00:38:53;;;;;;;9.80;2.93;;;14.90;75.40;;;;;;5039297;28;20498;-79
2023/08/10 00:41:23;;;;;;;4.90;2.43;;;14.90;75.40;;;;;;5044712;28;20538;-79
2023/08/10 00:43:52;;;;;;;6.07;2.30;;;14.80;75.40;;;;;;5041183;28;20476;-79
2023/08/10 00:46:21;;;;;;;8.93;2.23;;;14.80;75.40;;;;;;5036308;28;20498;-81
2023/08/10 00:48:49;;;;;;;6.70;2.37;;;14.70;75.40;;;;;;5044995;28;20463;-79
2023/08/10 00:51:17;;;;;;;7.10;2.90;;;14.60;75.50;;;;;;5044463;28;20568;-80
2023/08/10 00:53:45;;;;;;;5.53;2.60;;;14.60;75.50;;;;;;5043205;28;20472;-78
2023/08/10 00:56:14;;;;;;;5.90;2.17;;;14.60;75.60;;;;;;5043217;28;20957;-79
2023/08/10 00:58:45;;;;;;;12.00;2.53;;;14.60;75.60;;;;;;5042726;28;20487;-78
2023/08/10 01:01:14;;;;;;;6.53;3.10;;;14.60;75.60;;;;;;5044625;28;20473;-79
2023/08/10 01:03:43;;;;;;;6.60;2.70;;;14.60;75.60;;;;;;5041941;28;20466;-78
2023/08/10 01:06:19;;;;;;;6.67;2.80;;;14.60;75.60;;;;;;5041952;28;21400;-79
2023/08/10 01:08:56;;;;;;;5.43;2.60;;;14.60;75.50;;;;;;5067959;28;20461;-78
2023/08/10 01:11:33;;;;;;;5.40;2.83;;;14.60;75.40;;;;;;5062971;28;20790;-79
2023/08/10 01:14:11;;;;;;;19.50;2.83;;;14.50;75.40;;;;;;5041263;28;20470;-77
2023/08/10 01:16:42;;;;;;;8.53;3.00;;;14.50;75.40;;;;;;5069264;28;20500;-78
2023/08/10 01:19:26;;;;;;;6.23;2.60;;;14.50;75.40;;;;;;5039548;28;20489;-79
2023/08/10 01:22:02;;;;;;;6.33;2.30;;;14.40;75.30;;;;;;5040472;28;20989;-79
2023/08/10 01:24:33;;;;;;;6.10;2.50;;;14.40;75.40;;;;;;5042831;28;20464;-80
2023/08/10 01:27:04;;;;;;;5.07;2.13;;;14.40;75.50;;;;;;5038113;28;20460;-78
2023/08/10 01:29:33;;;;;;;4.40;2.00;;;14.30;75.60;;;;;;5054994;28;20469;-80
2023/08/10 01:32:02;;;;;;;5.47;2.20;;;14.40;75.60;;;;;;5043183;28;20483;-79
2023/08/10 01:34:30;;;;;;;6.80;2.40;;;14.40;75.60;;;;;;5040386;28;20472;-77
2023/08/10 01:36:59;;;;;;;5.87;2.40;;;14.40;75.60;;;;;;5042107;28;20472;-77
2023/08/10 01:39:27;;;;;;;6.47;2.43;;;14.50;75.60;;;;;;5041721;28;20664;-79
2023/08/10 01:41:56;;;;;;;6.70;2.37;;;14.50;75.40;;;;;;5035846;28;20467;-78
2023/08/10 01:44:25;;;;;;;6.37;2.20;;;14.40;75.40;;;;;;5042286;28;20978;-77
2023/08/10 01:46:56;;;;;;;5.70;2.37;;;14.40;75.40;;;;;;5046897;28;20472;-79
2023/08/10 01:49:25;;;;;;;11.93;2.97;;;14.40;75.30;;;;;;5040864;28;20462;-77
2023/08/10 01:51:53;;;;;;;7.70;2.70;;;14.40;75.30;;;;;;5036548;28;21237;-78
2023/08/10 01:54:22;;;;;;;5.40;3.00;;;14.30;75.40;;;;;;5035221;28;20480;-78
2023/08/10 01:56:50;;;;;;;5.77;2.70;;;14.30;75.40;;;;;;5068863;28;20824;-77
2023/08/10 01:59:19;;;;;;;6.30;3.10;;;14.30;75.50;;;;;;5043051;28;20484;-78
2023/08/10 02:01:48;;;;;;;7.10;3.00;;;14.30;75.40;;;;;;5047606;28;21291;-77
2023/08/10 02:04:17;;;;;;;9.00;2.90;;;14.30;75.40;;;;;;5041360;28;20465;-76
2023/08/10 02:06:45;;;;;;;4.80;2.30;;;14.30;75.40;;;;;;5039866;28;20468;-79
2023/08/10 02:09:13;;;;;;;5.33;2.57;;;14.30;75.50;;;;;;5047849;28;20478;-79
2023/08/10 02:11:43;;;;;;;6.50;2.67;;;14.30;75.50;;;;;;5043799;28;20902;-79
2023/08/10 02:14:11;;;;;;;5.10;2.70;;;14.30;75.40;;;;;;5043303;28;21004;-79
2023/08/10 02:16:39;;;;;;;7.57;2.97;;;14.30;75.30;;;;;;5062447;28;20533;-78
2023/08/10 02:19:09;;;;;;;7.33;3.93;;;14.20;75.40;;;;;;5054867;28;20503;-76
2023/08/10 02:21:37;;;;;;;8.40;3.60;;;14.20;75.60;;;;;;5038827;28;20504;-77
2023/08/10 02:24:05;;;;;;;7.07;3.87;;;14.20;75.50;;;;;;5038636;28;20474;-79
2023/08/10 02:26:33;;;;;;;15.23;4.10;;;14.20;75.50;;;;;;5041422;28;20466;-78
2023/08/10 02:29:02;;;;;;;17.63;4.77;;;14.20;75.50;;;;;;5048480;28;20491;-80
2023/08/10 02:31:30;;;;;;;14.73;5.17;;;14.10;75.50;;;;;;5038453;28;20957;-78
2023/08/10 02:33:58;;;;;;;6.43;3.57;;;14.10;75.70;;;;;;5046998;28;20965;-79
2023/08/10 02:36:28;;;;;;;7.63;3.90;;;14.10;75.90;;;;;;5044102;28;21124;-77
2023/08/10 02:38:56;;;;;;;8.50;3.90;;;14.10;76.00;;;;;;5054324;28;20487;-79
2023/08/10 02:41:24;;;;;;;8.90;3.83;;;14.10;76.00;;;;;;5048256;28;20570;-79
2023/08/10 02:43:55;;;;;;;10.37;4.00;;;14.10;76.10;;;;;;5049614;28;20975;-78
2023/08/10 02:46:24;;;;;;;8.77;3.87;;;14.10;76.10;;;;;;5051536;28;20497;-78
2023/08/10 02:48:53;;;;;;;8.00;4.07;;;14.10;76.20;;;;;;5046435;28;20462;-77
2023/08/10 02:51:21;;;;;;;9.23;3.80;;;14.10;76.30;;;;;;5042484;28;20514;-80
2023/08/10 02:53:51;;;;;;;11.57;4.30;;;14.00;76.30;;;;;;5076610;28;20898;-78
2023/08/10 02:56:19;;;;;;;12.30;5.40;;;14.00;76.30;;;;;;5040884;28;20547;-77
2023/08/10 02:58:47;;;;;;;17.23;5.10;;;14.00;76.40;;;;;;5041149;28;20924;-76
2023/08/10 03:01:16;;;;;;;27.80;5.90;;;14.00;76.50;;;;;;5047512;28;20473;-78
2023/08/10 03:03:45;;;;;;;25.20;5.80;;;14.00;76.50;;;;;;5072195;28;20468;-76
2023/08/10 03:06:13;;;;;;;24.87;5.77;;;14.00;76.60;;;;;;5042349;28;21609;-77
2023/08/10 03:08:41;;;;;;;11.30;4.93;;;14.00;76.60;;;;;;5049481;28;20453;-78
2023/08/10 03:11:12;;;;;;;19.00;5.40;;;13.90;76.90;;;;;;5040950;28;20715;-78
2023/08/10 03:13:40;;;;;;;28.70;5.67;;;13.90;77.10;;;;;;5039322;28;20499;-76
2023/08/10 03:16:26;;;;;;;19.63;5.10;;;13.90;77.20;;;;;;5047397;28;20467;-76
2023/08/10 03:18:55;;;;;;;14.43;5.07;;;13.90;77.30;;;;;;5030772;28;20471;-77
2023/08/10 03:21:23;;;;;;;18.03;5.40;;;13.90;77.30;;;;;;5049331;28;20474;-78
2023/08/10 03:23:51;;;;;;;25.27;4.60;;;13.90;77.40;;;;;;5044473;28;20477;-78
2023/08/10 03:26:20;;;;;;;13.90;4.60;;;13.80;77.40;;;;;;5043659;28;21234;-79
2023/08/10 03:28:47;;;;;;;19.10;4.77;;;13.80;77.60;;;;;;5043010;28;21056;-80
2023/08/10 03:31:15;;;;;;;16.70;4.20;;;13.80;77.60;;;;;;5038304;28;20483;-80
2023/08/10 03:33:44;;;;;;;16.93;4.77;;;13.80;77.60;;;;;;5039795;28;20553;-78
2023/08/10 03:36:12;;;;;;;12.40;4.63;;;13.70;77.80;;;;;;5044248;28;21161;-77
2023/08/10 03:38:40;;;;;;;17.80;4.47;;;13.70;77.90;;;;;;5046422;28;20807;-81
2023/08/10 03:41:08;;;;;;;14.20;4.10;;;13.70;78.00;;;;;;5040647;28;20521;-77
2023/08/10 03:43:39;;;;;;;14.97;3.20;;;13.70;78.10;;;;;;5046278;28;20468;-77
2023/08/10 03:46:07;;;;;;;11.87;4.43;;;13.70;78.00;;;;;;5043747;28;21245;-79
2023/08/10 03:48:35;;;;;;;7.00;3.50;;;13.70;78.00;;;;;;5041136;28;20557;-80
2023/08/10 03:51:03;;;;;;;11.10;3.70;;;13.60;78.10;;;;;;5047971;28;20479;-79
2023/08/10 03:53:31;;;;;;;8.50;3.40;;;13.60;78.20;;;;;;5050675;28;20548;-77
2023/08/10 03:56:01;;;;;;;6.70;3.13;;;13.60;78.20;;;;;;5045618;28;20512;-79
2023/08/10 03:58:29;;;;;;;7.13;3.10;;;13.50;78.20;;;;;;5048068;28;20456;-78
2023/08/10 04:00:58;;;;;;;5.77;2.73;;;13.50;78.20;;;;;;5060301;28;20555;-81
2023/08/10 04:03:42;;;;;;;6.10;3.30;;;13.50;78.30;;;;;;5041199;28;20460;-80
2023/08/10 04:06:10;;;;;;;5.17;2.93;;;13.50;78.30;;;;;;5043762;28;20529;-79
2023/08/10 04:08:38;;;;;;;5.87;3.30;;;13.50;78.30;;;;;;5040680;28;20532;-81
2023/08/10 04:11:06;;;;;;;6.27;2.90;;;13.50;78.40;;;;;;5047851;28;20972;-80
2023/08/10 04:13:34;;;;;;;5.63;2.70;;;13.50;78.50;;;;;;5044976;28;20557;-81
2023/08/10 04:16:03;;;;;;;8.10;2.97;;;13.50;78.40;;;;;;5038555;28;20456;-80
2023/08/10 04:18:31;;;;;;;7.07;2.43;;;13.60;78.40;;;;;;5072775;28;20962;-78
2023/08/10 04:21:00;;;;;;;6.30;2.83;;;13.60;78.20;;;;;;5046242;28;20474;-78
2023/08/10 04:23:28;;;;;;;6.40;2.40;;;13.60;78.20;;;;;;5043806;28;20461;-80
2023/08/10 04:25:56;;;;;;;5.50;2.83;;;13.70;78.20;;;;;;5043880;28;20474;-79
2023/08/10 04:28:24;;;;;;;8.73;2.70;;;13.70;78.10;;;;;;5045376;28;20842;-77
2023/08/10 04:30:52;;;;;;;8.80;2.80;;;13.70;78.10;;;;;;5038229;28;20527;-78
2023/08/10 04:33:21;;;;;;;6.63;2.57;;;13.70;78.10;;;;;;5038579;28;20461;-80
2023/08/10 04:35:49;;;;;;;5.40;2.80;;;13.70;78.20;;;;;;5046330;28;20990;-77
2023/08/10 04:38:17;;;;;;;5.53;2.87;;;13.80;78.20;;;;;;5047129;28;20478;-79
2023/08/10 04:40:46;;;;;;;5.73;2.60;;;13.80;78.20;;;;;;5042184;28;21026;-79
2023/08/10 04:43:13;;;;;;;5.07;2.70;;;13.80;78.20;;;;;;5044642;28;20483;-80
2023/08/10 04:45:42;;;;;;;6.20;3.43;;;13.90;78.20;;;;;;5047540;28;20452;-79
2023/08/10 04:48:12;;;;;;;10.37;3.57;;;14.00;78.20;;;;;;5050151;28;20449;-78
2023/08/10 04:50:41;;;;;;;8.83;4.00;;;14.00;78.10;;;;;;5050828;28;20480;-80
2023/08/10 04:53:09;;;;;;;6.40;3.37;;;14.00;78.10;;;;;;5040632;28;20456;-80
2023/08/10 04:55:38;;;;;;;18.07;4.23;;;13.90;78.20;;;;;;5046471;28;20842;-79
2023/08/10 04:58:06;;;;;;;20.20;4.00;;;13.90;78.30;;;;;;5043501;28;21021;-81
2023/08/10 05:00:34;;;;;;;34.27;5.03;;;14.00;78.50;;;;;;5038700;28;20547;-80
2023/08/10 05:03:02;;;;;;;7.17;4.20;;;14.00;78.70;;;;;;5040756;28;20457;-81
2023/08/10 05:05:30;;;;;;;6.43;3.10;;;14.10;78.80;;;;;;5042814;28;20932;-78
2023/08/10 05:08:00;;;;;;;6.13;2.50;;;14.10;78.90;;;;;;5044604;28;20460;-82
2023/08/10 05:10:28;;;;;;;4.67;2.17;;;14.20;79.00;;;;;;5040677;28;20472;-79
2023/08/10 05:12:56;;;;;;;6.40;2.93;;;14.30;79.20;;;;;;5043134;28;20460;-78
2023/08/10 05:15:24;;;;;;;6.10;3.10;;;14.40;79.50;;;;;;5046310;28;20463;-81
2023/08/10 05:17:52;;;;;;;6.00;2.70;;;14.60;79.30;;;;;;5047722;28;20481;-80
2023/08/10 05:20:20;;;;;;;6.80;3.40;;;14.70;79.10;;;;;;5039013;28;20900;-80
2023/08/10 05:22:51;;;;;;;6.93;3.10;;;14.70;78.80;;;;;;5042340;28;21089;-79
2023/08/10 05:25:20;;;;;;;7.47;3.47;;;14.70;78.70;;;;;;5042684;28;20493;-79
2023/08/10 05:27:48;;;;;;;5.17;2.30;;;14.70;78.70;;;;;;5036781;28;20480;-81
2023/08/10 05:30:16;;;;;;;7.20;3.70;;;14.70;78.70;;;;;;5040352;28;20446;-81
2023/08/10 05:32:44;;;;;;;7.33;4.47;;;14.60;78.80;;;;;;5040528;28;20492;-79
2023/08/10 05:35:14;;;;;;;7.77;3.97;;;14.60;78.90;;;;;;5041350;28;20469;-80
2023/08/10 05:37:42;;;;;;;7.47;3.50;;;14.60;79.00;;;;;;5044492;28;20469;-80
2023/08/10 05:40:12;;;;;;;6.30;3.20;;;14.60;79.10;;;;;;5045590;28;20493;-79
2023/08/10 05:42:42;;;;;;;6.13;3.20;;;14.70;79.20;;;;;;5039315;28;20516;-79
2023/08/10 05:45:15;;;;;;;5.60;2.80;;;14.70;79.20;;;;;;5046330;28;20446;-80
2023/08/10 05:47:45;;;;;;;8.40;3.40;;;14.70;79.30;;;;;;5038001;28;20453;-80
2023/08/10 05:50:14;;;;;;;6.23;3.00;;;14.80;79.40;;;;;;5043025;28;20786;-79
2023/08/10 05:52:43;;;;;;;11.03;2.90;;;14.80;79.50;;;;;;5043882;28;20462;-79
2023/08/10 05:55:11;;;;;;;6.07;2.63;;;14.80;79.50;;;;;;5040883;28;20508;-78
2023/08/10 05:57:41;;;;;;;5.40;2.70;;;14.90;79.60;;;;;;5043143;28;21078;-78
2023/08/10 06:00:12;;;;;;;4.67;2.50;;;15.00;79.70;;;;;;5043431;28;20570;-78
2023/08/10 06:02:41;;;;;;;6.37;2.50;;;15.10;79.80;;;;;;5040699;28;20451;-81
2023/08/10 06:05:09;;;;;;;4.70;2.47;;;15.20;79.80;;;;;;5046091;28;20467;-80
2023/08/10 06:07:37;;;;;;;8.83;2.87;;;15.30;79.80;;;;;;5065656;28;20477;-80
2023/08/10 06:10:06;;;;;;;13.50;9.20;;;15.40;79.80;;;;;;5041434;28;20903;-79
2023/08/10 06:12:37;;;;;;;15.50;8.73;;;15.50;79.70;;;;;;5039907;28;20531;-79
2023/08/10 06:15:07;;;;;;;15.17;9.93;;;15.50;79.70;;;;;;5043557;28;20458;-80
2023/08/10 06:17:35;;;;;;;14.83;7.47;;;15.60;79.60;;;;;;5036632;28;20458;-80
2023/08/10 06:20:09;;;;;;;9.67;6.03;;;15.60;79.60;;;;;;5040490;28;20529;-79
2023/08/10 06:22:40;;;;;;;10.70;5.93;;;15.60;79.70;;;;;;5045665;28;20532;-80
2023/08/10 06:25:12;;;;;;;12.47;4.83;;;15.70;79.70;;;;;;5040859;28;20451;-78
2023/08/10 06:27:41;;;;;;;7.37;3.93;;;15.80;79.80;;;;;;5036979;28;20541;-80
2023/08/10 06:30:13;;;;;;;7.20;3.63;;;15.80;79.80;;;;;;5044370;28;20454;-80
2023/08/10 06:32:41;;;;;;;10.23;3.53;;;15.90;79.90;;;;;;5046450;28;21042;-79
2023/08/10 06:35:10;;;;;;;6.23;3.60;;;16.00;79.90;;;;;;5047780;28;20435;-80
2023/08/10 06:37:39;;;;;;;7.13;3.60;;;16.00;79.80;;;;;;5045440;28;20561;-79
2023/08/10 06:40:09;;;;;;;10.10;3.77;;;16.10;79.70;;;;;;5043798;28;20562;-80
2023/08/10 06:42:37;;;;;;;7.10;3.27;;;16.10;79.80;;;;;;5041655;28;20569;-78
2023/08/10 06:45:15;;;;;;;6.67;3.50;;;16.20;79.80;;;;;;5042967;28;20817;-80
2023/08/10 06:47:44;;;;;;;6.60;3.97;;;16.20;79.90;;;;;;5044611;28;20718;-79
2023/08/10 06:50:12;;;;;;;5.87;2.80;;;16.30;79.90;;;;;;5040811;28;20489;-79
2023/08/10 06:52:41;;;;;;;7.00;3.20;;;16.30;79.90;;;;;;5039178;28;20890;-79
2023/08/10 06:55:11;;;;;;;5.80;3.17;;;16.30;80.00;;;;;;5045203;28;20485;-78
2023/08/10 06:57:39;;;;;;;6.50;3.10;;;16.40;80.10;;;;;;5042584;28;20454;-79
2023/08/10 07:00:13;;;;;;;7.43;3.10;;;16.40;80.20;;;;;;5042222;28;20501;-80
2023/08/10 07:02:48;;;;;;;5.70;2.93;;;16.50;80.30;;;;;;5048904;28;20472;-80
2023/08/10 07:05:17;;;;;;;6.00;3.30;;;16.60;80.30;;;;;;5047937;28;21096;-80
2023/08/10 07:07:45;;;;;;;5.97;3.27;;;16.70;80.40;;;;;;5039936;28;20508;-79
2023/08/10 07:10:13;;;;;;;6.77;3.80;;;16.70;80.30;;;;;;5041287;28;20449;-79
2023/08/10 07:12:42;;;;;;;8.13;3.93;;;16.80;80.30;;;;;;5073532;28;20459;-78
2023/08/10 07:15:10;;;;;;;5.90;3.47;;;16.90;80.40;;;;;;5044892;28;20444;-80
2023/08/10 07:17:39;;;;;;;8.83;3.40;;;16.90;80.40;;;;;;5044974;28;20457;-79
2023/08/10 07:20:09;;;;;;;6.60;3.00;;;17.00;80.40;;;;;;5043247;28;20472;-79
2023/08/10 07:22:37;;;;;;;7.57;3.23;;;17.00;80.40;;;;;;5043826;28;20581;-80
2023/08/10 07:25:08;;;;;;;9.27;2.77;;;17.00;80.40;;;;;;5038585;28;20457;-79
2023/08/10 07:27:36;;;;;;;8.57;3.00;;;17.00;80.50;;;;;;5045261;28;20458;-79
2023/08/10 07:30:05;;;;;;;10.40;2.80;;;17.10;80.60;;;;;;5038841;28;20460;-80
2023/08/10 07:32:33;;;;;;;9.20;3.50;;;17.10;80.70;;;;;;5037390;28;20468;-80
2023/08/10 07:35:02;;;;;;;5.87;2.53;;;17.20;80.70;;;;;;5050072;28;20463;-82
2023/08/10 07:37:33;;;;;;;10.30;3.33;;;17.20;80.80;;;;;;5047154;28;20494;-83
2023/08/10 07:40:02;;;;;;;7.40;3.43;;;17.20;80.90;;;;;;5053250;28;20557;-84
2023/08/10 07:42:30;;;;;;;5.73;2.93;;;17.30;81.00;;;;;;5042539;28;20491;-84
2023/08/10 07:44:58;;;;;;;6.90;2.70;;;17.30;81.00;;;;;;5049562;28;20473;-82
2023/08/10 07:47:26;;;;;;;7.93;2.77;;;17.40;80.90;;;;;;5046262;28;20469;-82
2023/08/10 07:49:54;;;;;;;4.30;2.27;;;17.40;80.90;;;;;;5044792;28;20507;-82
2023/08/10 07:52:22;;;;;;;5.40;3.07;;;17.50;80.90;;;;;;5046753;28;20453;-81
2023/08/10 07:54:51;;;;;;;5.87;2.57;;;17.50;80.80;;;;;;5046390;28;20465;-82
2023/08/10 07:57:19;;;;;;;9.53;2.70;;;17.60;80.80;;;;;;5043725;28;20968;-82
2023/08/10 07:59:47;;;;;;;4.70;2.20;;;17.60;80.70;;;;;;5050880;28;20468;-80
2023/08/10 08:02:15;;;;;;;5.43;2.77;;;17.70;80.70;;;;;;5030816;28;20491;-82
2023/08/10 08:04:43;;;;;;;6.47;2.93;;;17.70;80.80;;;;;;5045331;28;20464;-80
2023/08/10 08:07:11;;;;;;;6.47;2.80;;;17.80;80.80;;;;;;5022541;28;20457;-81
2023/08/10 08:09:39;;;;;;;5.50;2.50;;;17.90;80.70;;;;;;5028194;28;20553;-82
2023/08/10 08:12:09;;;;;;;6.43;3.30;;;17.90;80.60;;;;;;5027196;28;20550;-81
2023/08/10 08:14:37;;;;;;;6.10;3.30;;;18.00;80.60;;;;;;5030052;28;20487;-80
2023/08/10 08:17:06;;;;;;;7.33;3.00;;;18.00;80.50;;;;;;5024472;28;20547;-81
2023/08/10 08:19:36;;;;;;;7.13;2.97;;;18.10;80.40;;;;;;5026472;28;21102;-82
2023/08/10 08:22:07;;;;;;;5.67;2.97;;;18.10;80.10;;;;;;5032758;28;20619;-82
2023/08/10 08:24:35;;;;;;;6.47;2.97;;;18.20;79.90;;;;;;5019424;28;20915;-83
2023/08/10 08:27:06;;;;;;;11.63;2.93;;;18.20;79.70;;;;;;5029960;28;20574;-82
2023/08/10 08:29:35;;;;;;;9.30;2.87;;;18.30;79.50;;;;;;5027338;28;20898;-83
2023/08/10 08:32:03;;;;;;;5.53;2.80;;;18.40;79.20;;;;;;5017035;28;20475;-81
2023/08/10 08:34:35;;;;;;;5.43;2.70;;;18.40;79.00;;;;;;5019794;28;20935;-82
2023/08/10 08:37:03;;;;;;;6.73;2.30;;;18.50;78.80;;;;;;5025491;28;21100;-80
2023/08/10 08:39:31;;;;;;;6.27;2.83;;;18.40;78.80;;;;;;5027222;28;20550;-81
2023/08/10 08:42:00;;;;;;;5.13;2.20;;;18.50;78.80;;;;;;5020458;28;20472;-82
2023/08/10 08:44:28;;;;;;;6.30;2.70;;;18.60;78.40;;;;;;5026213;28;20451;-79
2023/08/10 08:47:00;;;;;;;5.37;2.10;;;18.60;78.30;;;;;;5029689;28;20463;-79
2023/08/10 08:49:28;;;;;;;4.60;1.97;;;18.70;78.00;;;;;;5018471;28;20445;-82
2023/08/10 08:51:57;;;;;;;5.13;2.00;;;18.70;77.90;;;;;;5025585;28;20455;-82
2023/08/10 08:54:26;;;;;;;6.03;1.87;;;18.70;77.80;;;;;;5025329;28;20471;-81
2023/08/10 08:56:54;;;;;;;6.07;2.23;;;18.80;77.50;;;;;;5018750;28;20469;-81
2023/08/10 08:59:22;;;;;;;5.70;2.10;;;18.90;77.30;;;;;;5018104;28;21387;-79
2023/08/10 09:02:02;;;;;;;5.73;2.23;;;18.90;77.00;;;;;;5028848;28;20471;-81
2023/08/10 09:04:45;;;;;;;5.70;2.07;;;19.00;76.70;;;;;;5058203;28;20463;-81
2023/08/10 09:07:13;;;;;;;5.23;2.00;;;19.00;76.50;;;;;;5027870;28;20459;-81
2023/08/10 09:09:41;;;;;;;6.80;1.90;;;19.00;76.20;;;;;;5020260;28;20824;-82
2023/08/10 09:12:28;;;;;;;5.50;2.47;;;19.10;75.90;;;;;;5021918;28;20454;-80
2023/08/10 09:15:02;;;;;;;6.47;2.20;;;19.10;75.60;;;;;;5041600;28;20462;-81
2023/08/10 09:17:33;;;;;;;4.80;1.77;;;19.20;75.50;;;;;;5022026;28;20455;-81
2023/08/10 09:20:02;;;;;;;4.63;1.90;;;19.30;75.20;;;;;;5027805;28;21060;-81
2023/08/10 09:22:33;;;;;;;4.80;2.10;;;19.30;75.10;;;;;;5026769;28;20566;-81
2023/08/10 09:25:01;;;;;;;4.90;2.13;;;19.40;74.90;;;;;;5015746;28;20465;-80
2023/08/10 09:27:30;;;;;;;7.03;2.50;;;19.40;74.60;;;;;;5028415;28;20486;-80
2023/08/10 09:29:59;;;;;;;4.67;1.93;;;19.50;74.50;;;;;;5017958;28;20461;-81
2023/08/10 09:32:28;;;;;;;4.60;2.00;;;19.50;74.40;;;;;;5032341;28;20556;-79
2023/08/10 09:34:57;;;;;;;7.53;2.60;;;19.50;74.40;;;;;;5047698;28;20459;-80
2023/08/10 09:37:26;;;;;;;4.90;2.07;;;19.60;74.10;;;;;;5025716;28;20471;-82
2023/08/10 09:39:56;;;;;;;5.17;1.60;;;19.70;73.70;;;;;;5024491;28;20479;-81
2023/08/10 09:42:24;;;;;;;7.37;2.30;;;19.70;73.40;;;;;;5022855;28;20978;-81
2023/08/10 09:44:53;;;;;;;5.17;1.93;;;19.80;73.00;;;;;;5025646;28;20864;-83
2023/08/10 09:47:21;;;;;;;5.53;1.90;;;19.90;72.50;;;;;;5025833;28;20470;-80
2023/08/10 09:50:01;;;;;;;5.40;2.50;;;19.90;72.40;;;;;;5023930;28;20964;-80
2023/08/10 09:52:30;;;;;;;4.53;2.07;;;19.90;71.70;;;;;;5023977;28;20542;-80
2023/08/10 09:54:58;;;;;;;5.40;2.27;;;20.00;71.90;;;;;;5021131;28;20459;-82
2023/08/10 09:57:27;;;;;;;5.37;2.30;;;20.10;71.70;;;;;;5021922;28;20462;-82
2023/08/10 09:59:56;;;;;;;8.30;2.80;;;20.20;71.40;;;;;;5025706;28;20456;-82
2023/08/10 10:02:25;;;;;;;5.67;2.60;;;20.20;71.00;;;;;;5018877;28;20475;-80
2023/08/10 10:04:54;;;;;;;5.43;2.43;;;20.30;70.50;;;;;;5029594;28;20458;-79
2023/08/10 10:07:28;;;;;;;5.40;2.63;;;20.30;70.30;;;;;;5024684;28;20465;-82
2023/08/10 10:09:58;;;;;;;5.10;2.47;;;20.40;70.10;;;;;;5031227;28;20443;-80
2023/08/10 10:12:26;;;;;;;7.70;2.40;;;20.40;70.10;;;;;;5018499;28;20480;-81
2023/08/10 10:14:55;;;;;;;5.37;2.27;;;20.40;69.90;;;;;;5032809;28;20816;-82
2023/08/10 10:17:23;;;;;;;5.00;2.10;;;20.50;69.60;;;;;;5028241;28;20531;-80
2023/08/10 10:19:52;;;;;;;5.07;2.20;;;20.50;69.40;;;;;;5025178;28;20553;-81
2023/08/10 10:22:21;;;;;;;7.90;2.90;;;20.50;69.20;;;;;;5027584;28;20459;-82
2023/08/10 10:24:51;;;;;;;6.63;2.80;;;20.50;69.10;;;;;;5037624;28;20479;-82
2023/08/10 10:27:19;;;;;;;5.10;2.27;;;20.60;68.80;;;;;;5025257;28;20443;-81
2023/08/10 10:29:52;;;;;;;5.60;2.63;;;20.60;68.50;;;;;;5026821;28;20492;-81
2023/08/10 10:32:22;;;;;;;7.57;2.20;;;20.60;68.30;;;;;;5020534;28;21265;-81
2023/08/10 10:34:52;;;;;;;4.90;2.33;;;20.60;68.40;;;;;;5031010;28;20865;-79
2023/08/10 10:37:28;;;;;;;7.67;2.40;;;20.60;68.50;;;;;;5067583;28;20541;-82
2023/08/10 10:40:15;;;;;;;5.40;2.57;;;20.70;68.20;;;;;;5024968;28;21232;-80
2023/08/10 10:43:05;;;;;;;4.87;2.30;;;20.80;68.10;;;;;;5029420;28;20452;-81
2023/08/10 10:45:38;;;;;;;5.40;2.37;;;20.80;68.00;;;;;;5027973;28;20471;-82
2023/08/10 10:48:06;;;;;;;7.27;2.60;;;20.80;67.90;;;;;;5027370;28;20456;-81
2023/08/10 10:50:36;;;;;;;5.90;2.53;;;20.90;67.80;;;;;;5029613;28;21133;-79
2023/08/10 10:53:05;;;;;;;6.23;2.70;;;20.90;67.80;;;;;;5024946;28;20495;-82
2023/08/10 10:55:42;;;;;;;5.63;2.27;;;21.00;68.00;;;;;;5028356;28;20460;-79
2023/08/10 10:58:12;;;;;;;6.53;2.33;;;21.00;67.80;;;;;;5040090;28;20467;-83
2023/08/10 11:00:42;;;;;;;4.57;1.97;;;21.10;67.60;;;;;;5022671;28;20517;-80
2023/08/10 11:03:14;;;;;;;6.97;2.20;;;21.10;67.40;;;;;;5030739;28;21025;-83
2023/08/10 11:05:42;;;;;;;4.40;2.10;;;21.20;67.30;;;;;;5029453;28;20583;-81
2023/08/10 11:08:12;;;;;;;4.83;2.50;;;21.10;67.20;;;;;;5033232;28;20455;-82
2023/08/10 11:10:43;;;;;;;4.73;2.40;;;21.20;67.30;;;;;;5029958;28;20471;-80
2023/08/10 11:13:11;;;;;;;6.43;2.30;;;21.30;67.30;;;;;;5029086;28;20447;-81
2023/08/10 11:15:39;;;;;;;4.80;2.47;;;21.40;67.10;;;;;;5030183;28;20459;-83
2023/08/10 11:18:12;;;;;;;7.87;2.40;;;21.40;66.70;;;;;;5031910;28;20537;-81
2023/08/10 11:20:45;;;;;;;6.20;2.30;;;21.40;66.50;;;;;;5028900;28;20459;-81
2023/08/10 11:23:13;;;;;;;4.90;1.80;;;21.50;66.60;;;;;;5029964;28;20955;-81
2023/08/10 11:25:49;;;;;;;4.70;2.10;;;21.60;66.50;;;;;;5044036;28;20468;-82
2023/08/10 11:28:18;;;;;;;8.53;2.27;;;21.70;66.00;;;;;;5029128;28;20929;-80
2023/08/10 11:30:48;;;;;;;5.30;2.47;;;21.70;65.90;;;;;;5027548;28;20574;-82
2023/08/10 11:33:16;;;;;;;5.37;2.80;;;21.70;65.70;;;;;;5031600;28;20450;-80
2023/08/10 11:35:51;;;;;;;5.17;2.20;;;21.80;65.20;;;;;;5031297;28;20463;-80
2023/08/10 11:38:19;;;;;;;5.10;2.13;;;21.80;65.10;;;;;;5028980;28;20798;-81
2023/08/10 11:40:49;;;;;;;5.90;1.80;;;21.80;64.80;;;;;;5027354;28;20861;-81
2023/08/10 11:43:22;;;;;;;7.43;2.17;;;21.90;64.70;;;;;;5026520;28;20447;-79
2023/08/10 11:45:50;;;;;;;6.20;2.40;;;21.90;64.60;;;;;;5026679;28;20456;-81
2023/08/10 11:48:22;;;;;;;6.07;2.70;;;21.90;64.40;;;;;;5028421;28;20450;-83
2023/08/10 11:51:01;;;;;;;5.10;1.90;;;22.00;64.30;;;;;;5025180;28;20958;-82
2023/08/10 11:53:36;;;;;;;5.70;2.50;;;22.00;64.30;;;;;;5049338;28;20464;-80
2023/08/10 11:56:08;;;;;;;4.60;2.30;;;22.00;64.20;;;;;;5026909;28;20455;-83
2023/08/10 11:58:36;;;;;;;6.40;2.70;;;22.10;64.10;;;;;;5024322;28;20858;-80
2023/08/10 12:01:06;;;;;;;5.23;2.00;;;22.10;63.90;;;;;;5023825;28;20502;-82
2023/08/10 12:03:37;;;;;;;5.40;2.47;;;22.10;63.70;;;;;;5021033;28;21174;-79
2023/08/10 12:06:06;;;;;;;5.77;2.40;;;22.20;63.40;;;;;;5025897;28;20517;-82
2023/08/10 12:08:38;;;;;;;6.30;2.37;;;22.20;63.10;;;;;;5023605;28;20471;-82
2023/08/10 12:11:11;;;;;;;5.10;1.90;;;22.20;63.00;;;;;;5026490;28;20530;-82
2023/08/10 12:13:47;;;;;;;5.53;2.30;;;22.20;63.00;;;;;;5025468;28;20949;-81
2023/08/10 12:16:17;;;;;;;5.23;2.27;;;22.20;62.80;;;;;;5029230;28;20451;-81
2023/08/10 12:18:46;;;;;;;5.10;2.20;;;22.20;62.70;;;;;;5023799;28;20966;-82
2023/08/10 12:21:15;;;;;;;4.90;2.30;;;22.20;62.30;;;;;;5026149;28;20456;-81
2023/08/10 12:23:44;;;;;;;6.37;2.57;;;22.20;62.10;;;;;;5024685;28;20618;-82
2023/08/10 12:26:14;;;;;;;7.43;2.17;;;22.20;62.00;;;;;;5026875;28;20448;-82
2023/08/10 12:28:42;;;;;;;4.53;2.03;;;22.20;61.90;;;;;;5022917;28;20473;-82
2023/08/10 12:31:12;;;;;;;6.53;2.13;;;22.20;61.90;;;;;;5028291;28;21088;-79
2023/08/10 12:33:41;;;;;;;6.70;2.07;;;22.20;61.90;;;;;;5027209;28;20540;-82
2023/08/10 12:36:09;;;;;;;7.90;2.27;;;22.20;61.70;;;;;;5026887;28;20791;-80
2023/08/10 12:38:38;;;;;;;5.37;2.30;;;22.20;61.60;;;;;;5026060;28;20488;-81
2023/08/10 12:41:09;;;;;;;5.60;2.20;;;22.20;61.70;;;;;;5028124;28;20586;-82
2023/08/10 12:43:54;;;;;;;5.63;2.30;;;22.30;61.80;;;;;;5024226;28;21022;-81
2023/08/10 12:46:22;;;;;;;6.30;2.20;;;22.40;61.90;;;;;;5025522;28;20458;-82
2023/08/10 12:48:50;;;;;;;6.40;2.27;;;22.50;61.80;;;;;;5026117;28;20472;-80
2023/08/10 12:51:20;;;;;;;4.27;1.80;;;22.50;61.70;;;;;;5032804;28;20470;-81
2023/08/10 12:53:48;;;;;;;5.33;2.20;;;22.50;61.60;;;;;;5025037;28;20555;-81
2023/08/10 12:56:17;;;;;;;4.67;2.17;;;22.50;61.40;;;;;;5028671;28;20468;-83
2023/08/10 12:58:49;;;;;;;4.50;1.97;;;22.60;61.30;;;;;;5025695;28;20479;-79